createdAt,value
2019-02-26T00:03:35.730Z,5.20
2019-02-26T00:06:04.196Z,5.17
2019-02-26T00:08:33.489Z,5.16
2019-02-26T00:11:03.746Z,5.14
2019-02-26T00:13:34.581Z,5.08
2019-02-26T00:16:44.583Z,5.04
2019-02-26T00:19:14.385Z,4.97
2019-02-26T00:21:45.200Z,4.88
2019-02-26T00:24:14.604Z,4.83
2019-02-26T00:26:45.114Z,4.83
2019-02-26T00:29:13.596Z,4.80
2019-02-26T00:31:43.406Z,4.79
2019-02-26T00:34:14.019Z,4.82
2019-02-26T00:36:42.275Z,4.82
2019-02-26T00:39:10.703Z,4.81
2019-02-26T00:41:40.339Z,4.81
2019-02-26T00:44:09.354Z,4.77
2019-02-26T00:46:39.469Z,4.75
2019-02-26T00:49:28.475Z,4.70
2019-02-26T00:54:31.867Z,4.61
2019-02-26T00:57:20.536Z,4.65
2019-02-26T00:59:48.930Z,4.62
2019-02-26T01:02:17.318Z,4.56
2019-02-26T01:04:46.764Z,4.44
2019-02-26T01:07:15.886Z,4.27
2019-02-26T01:09:44.282Z,4.24
2019-02-26T01:12:13.812Z,4.25
2019-02-26T01:14:44.178Z,4.19
2019-02-26T01:17:14.815Z,4.01
2019-02-26T01:19:43.154Z,3.90
2019-02-26T01:22:11.546Z,3.82
2019-02-26T01:24:39.942Z,3.74
2019-02-26T01:27:08.354Z,3.72
2019-02-26T01:29:36.755Z,3.74
2019-02-26T01:32:08.887Z,3.68
2019-02-26T01:34:35.307Z,3.66
2019-02-26T01:37:05.522Z,3.66
2019-02-26T01:39:35.624Z,3.68
2019-02-26T01:44:39.816Z,3.70
2019-02-26T01:47:08.074Z,3.76
2019-02-26T01:49:36.476Z,3.75
2019-02-26T01:52:06.288Z,3.77
2019-02-26T01:54:37.042Z,3.79
2019-02-26T01:57:27.230Z,3.85
2019-02-26T01:59:54.579Z,3.89
2019-02-26T02:02:25.387Z,3.98
2019-02-26T02:10:03.234Z,4.18
2019-02-26T02:15:46.590Z,4.29
2019-02-26T02:18:18.214Z,4.34
2019-02-26T02:20:58.520Z,4.42
2019-02-26T02:23:28.034Z,4.48
2019-02-26T02:25:59.720Z,4.55
2019-02-26T02:28:28.566Z,4.60
2019-02-26T02:30:57.263Z,4.62
2019-02-26T02:33:28.962Z,4.62
2019-02-26T02:38:30.457Z,4.61
2019-02-26T02:43:33.204Z,4.54
2019-02-26T02:46:21.021Z,4.51
2019-02-26T02:48:49.418Z,4.50
2019-02-26T02:51:17.816Z,4.50
2019-02-26T02:56:20.079Z,4.52
2019-02-26T03:01:24.504Z,4.48
2019-02-26T03:03:53.879Z,4.48
2019-02-26T03:06:24.269Z,4.45
2019-02-26T03:08:53.501Z,4.45
2019-02-26T03:11:22.719Z,4.44
2019-02-26T03:13:51.909Z,4.45
2019-02-26T03:16:21.992Z,4.45
2019-02-26T03:21:27.774Z,4.45
2019-02-26T03:26:31.722Z,4.47
2019-02-26T03:31:35.014Z,4.52
2019-02-26T03:34:25.392Z,4.53
2019-02-26T03:36:53.285Z,4.53
2019-02-26T03:39:21.686Z,4.52
2019-02-26T03:41:51.090Z,4.55
2019-02-26T03:44:20.253Z,4.54
2019-02-26T03:46:48.645Z,4.50
2019-02-26T03:49:20.053Z,4.48
2019-02-26T03:51:48.446Z,4.46
2019-02-26T03:54:16.838Z,4.44
2019-02-26T03:56:45.430Z,4.43
2019-02-26T03:59:13.843Z,4.42
2019-02-26T04:01:42.234Z,4.40
2019-02-26T04:04:10.721Z,4.40
2019-02-26T04:06:41.156Z,4.39
2019-02-26T04:09:11.170Z,4.38
2019-02-26T04:11:44.777Z,4.36
2019-02-26T04:14:12.672Z,4.35
2019-02-26T04:16:41.117Z,4.37
2019-02-26T04:19:10.193Z,4.39
2019-02-26T04:22:15.817Z,4.37
2019-02-26T04:24:45.100Z,4.34
2019-02-26T04:27:41.221Z,4.29
2019-02-26T04:30:34.063Z,4.29
2019-02-26T04:33:22.843Z,4.28
2019-02-26T04:36:02.877Z,4.26
2019-02-26T04:38:36.886Z,4.26
2019-02-26T04:41:06.862Z,4.25
2019-02-26T04:44:06.241Z,4.26
2019-02-26T04:46:40.625Z,4.30
2019-02-26T04:49:09.022Z,4.32
2019-02-26T04:51:39.889Z,4.34
2019-02-26T04:54:08.374Z,4.33
2019-02-26T04:56:39.583Z,4.34
2019-02-26T04:59:09.379Z,4.34
2019-02-26T05:01:37.277Z,4.33
2019-02-26T05:04:05.681Z,4.32
2019-02-26T05:06:34.329Z,4.29
2019-02-26T05:09:05.457Z,4.28
2019-02-26T05:11:37.122Z,4.28
2019-02-26T05:14:03.706Z,4.28
2019-02-26T05:16:34.730Z,4.28
2019-02-26T05:19:02.380Z,4.28
2019-02-26T05:21:33.266Z,4.28
2019-02-26T05:24:02.970Z,4.28
2019-02-26T05:26:31.162Z,4.26
2019-02-26T05:28:59.575Z,4.23
2019-02-26T05:31:29.762Z,4.22
2019-02-26T05:34:00.063Z,4.23
2019-02-26T05:36:28.582Z,4.22
2019-02-26T05:39:00.371Z,4.24
2019-02-26T05:41:28.527Z,4.24
2019-02-26T05:43:58.275Z,4.23
2019-02-26T05:46:29.449Z,4.23
2019-02-26T05:48:57.241Z,4.24
2019-02-26T05:51:27.458Z,4.25
2019-02-26T05:53:55.945Z,4.27
2019-02-26T05:56:24.348Z,4.26
2019-02-26T05:58:52.774Z,4.25
2019-02-26T06:01:22.494Z,4.26
2019-02-26T06:03:51.881Z,4.26
2019-02-26T06:06:20.483Z,4.25
2019-02-26T06:08:48.877Z,4.24
2019-02-26T06:11:17.292Z,4.23
2019-02-26T06:13:45.841Z,4.22
2019-02-26T06:16:14.232Z,4.20
2019-02-26T06:18:44.006Z,4.22
2019-02-26T06:21:13.792Z,4.23
2019-02-26T06:23:45.671Z,4.25
2019-02-26T06:26:16.743Z,4.29
2019-02-26T06:28:48.024Z,4.33
2019-02-26T06:31:17.582Z,4.40
2019-02-26T06:33:47.761Z,4.44
2019-02-26T06:36:18.610Z,4.47
2019-02-26T06:38:49.601Z,4.50
2019-02-26T06:41:16.962Z,4.54
2019-02-26T06:43:48.360Z,4.58
2019-02-26T06:46:15.512Z,4.61
2019-02-26T06:48:46.809Z,4.64
2019-02-26T06:51:15.772Z,4.68
2019-02-26T06:53:47.144Z,4.74
2019-02-26T06:56:16.034Z,4.79
2019-02-26T06:58:44.996Z,4.83
2019-02-26T07:01:14.746Z,4.85
2019-02-26T07:03:44.242Z,4.88
2019-02-26T07:06:12.659Z,4.93
2019-02-26T07:08:42.112Z,5.01
2019-02-26T07:11:11.164Z,5.11
2019-02-26T07:13:41.257Z,5.22
2019-02-26T07:16:09.817Z,5.33
2019-02-26T07:18:38.679Z,5.45
2019-02-26T07:21:07.125Z,5.57
2019-02-26T07:23:37.610Z,5.68
2019-02-26T07:26:05.633Z,5.78
2019-02-26T07:28:34.182Z,5.87
2019-02-26T07:31:03.293Z,5.93
2019-02-26T07:33:34.701Z,5.98
2019-02-26T07:36:04.175Z,6.00
2019-02-26T07:38:40.983Z,6.04
2019-02-26T07:41:03.783Z,6.08
2019-02-26T07:43:36.635Z,6.11
2019-02-26T07:46:03.059Z,6.09
2019-02-26T07:48:33.567Z,6.05
2019-02-26T07:51:01.618Z,6.03
2019-02-26T07:53:30.105Z,6.06
2019-02-26T07:55:59.587Z,6.12
2019-02-26T07:58:30.900Z,6.17
2019-02-26T08:00:58.818Z,6.19
2019-02-26T08:03:29.295Z,6.20
2019-02-26T08:05:59.280Z,6.24
2019-02-26T08:08:27.518Z,6.29
2019-02-26T08:10:55.973Z,6.41
2019-02-26T08:13:28.543Z,6.52
2019-02-26T08:15:55.842Z,6.63
2019-02-26T08:18:24.876Z,6.77
2019-02-26T08:20:56.869Z,6.83
2019-02-26T08:23:24.535Z,6.87
2019-02-26T08:25:55.486Z,6.98
2019-02-26T08:28:24.894Z,7.07
2019-02-26T08:30:55.224Z,7.13
2019-02-26T08:33:23.588Z,7.20
2019-02-26T08:35:55.522Z,7.26
2019-02-26T08:38:22.258Z,7.33
2019-02-26T08:40:50.702Z,7.38
2019-02-26T08:43:19.204Z,7.45
2019-02-26T08:45:49.272Z,7.55
2019-02-26T08:48:19.699Z,7.61
2019-02-26T08:50:47.962Z,7.69
2019-02-26T08:53:16.359Z,7.76
2019-02-26T08:55:44.762Z,7.82
2019-02-26T08:58:13.370Z,7.92
2019-02-26T09:00:41.763Z,7.98
2019-02-26T09:03:10.837Z,8.01
2019-02-26T09:05:40.309Z,8.03
2019-02-26T09:08:10.885Z,8.08
2019-02-26T09:10:41.159Z,8.16
2019-02-26T09:13:11.338Z,8.22
2019-02-26T09:15:41.386Z,8.29
2019-02-26T09:18:09.475Z,8.37
2019-02-26T09:20:38.093Z,8.47
2019-02-26T09:23:06.554Z,8.58
2019-02-26T09:25:34.956Z,8.71
2019-02-26T09:28:03.536Z,8.82
2019-02-26T09:30:33.940Z,8.89
2019-02-26T09:33:03.428Z,8.95
2019-02-26T09:35:33.129Z,9.03
2019-02-26T09:38:01.598Z,9.16
2019-02-26T09:40:33.445Z,9.30
2019-02-26T09:43:00.306Z,9.39
2019-02-26T09:45:30.180Z,9.48
2019-02-26T09:48:01.006Z,9.58
2019-02-26T09:50:28.840Z,9.68
2019-02-26T09:52:59.114Z,9.80
2019-02-26T09:55:27.425Z,9.91
2019-02-26T09:57:55.968Z,10.03
2019-02-26T10:00:27.186Z,10.08
2019-02-26T10:02:54.529Z,10.11
2019-02-26T10:05:23.336Z,10.14
2019-02-26T10:07:54.353Z,10.14
2019-02-26T10:10:25.347Z,10.12
2019-02-26T10:12:55.904Z,10.13
2019-02-26T10:15:23.709Z,10.17
2019-02-26T10:17:52.110Z,10.29
2019-02-26T10:20:26.194Z,10.38
2019-02-26T10:22:57.217Z,10.52
2019-02-26T10:25:27.943Z,10.60
2019-02-26T10:27:54.875Z,10.68
2019-02-26T10:30:23.362Z,10.76
2019-02-26T10:32:51.898Z,10.89
2019-02-26T10:35:32.609Z,10.98
2019-02-26T10:38:02.161Z,11.06
2019-02-26T10:40:35.076Z,11.16
2019-02-26T10:42:58.920Z,11.31
2019-02-26T10:45:36.101Z,11.42
2019-02-26T10:48:01.952Z,11.52
2019-02-26T10:50:31.863Z,11.60
2019-02-26T10:53:07.225Z,11.73
2019-02-26T10:55:38.058Z,11.82
2019-02-26T10:58:04.674Z,11.93
2019-02-26T11:00:34.634Z,12.03
2019-02-26T11:03:01.741Z,12.11
2019-02-26T11:05:30.305Z,12.16
2019-02-26T11:08:01.869Z,12.22
2019-02-26T11:10:30.445Z,12.25
2019-02-26T11:12:59.775Z,12.32
2019-02-26T11:15:31.088Z,12.41
2019-02-26T11:17:58.645Z,12.53
2019-02-26T11:20:30.002Z,12.67
2019-02-26T11:22:57.198Z,12.76
2019-02-26T11:25:27.384Z,12.86
2019-02-26T11:27:55.812Z,12.96
2019-02-26T11:30:29.071Z,13.07
2019-02-26T11:32:58.598Z,13.15
2019-02-26T11:35:27.445Z,13.25
2019-02-26T11:37:57.733Z,13.34
2019-02-26T11:40:28.209Z,13.41
2019-02-26T11:42:59.615Z,13.45
2019-02-26T11:45:27.351Z,13.48
2019-02-26T11:47:58.007Z,13.57
2019-02-26T11:50:28.051Z,13.66
2019-02-26T11:52:57.026Z,13.74
2019-02-26T11:55:26.917Z,13.81
2019-02-26T11:57:55.795Z,13.86
2019-02-26T12:00:50.414Z,13.94
2019-02-26T12:03:18.188Z,14.02
2019-02-26T12:05:46.610Z,14.12
2019-02-26T12:08:17.397Z,14.21
2019-02-26T12:10:45.192Z,14.29
2019-02-26T12:13:14.661Z,14.36
2019-02-26T12:15:44.320Z,14.44
2019-02-26T12:18:14.949Z,14.57
2019-02-26T12:20:43.596Z,14.70
2019-02-26T12:23:15.979Z,14.81
2019-02-26T12:25:43.214Z,14.88
2019-02-26T12:28:13.645Z,14.93
2019-02-26T12:30:43.909Z,14.98
2019-02-26T12:33:14.323Z,14.95
2019-02-26T12:35:43.654Z,14.98
2019-02-26T12:38:18.163Z,15.03
2019-02-26T12:40:44.688Z,15.09
2019-02-26T12:43:16.311Z,15.15
2019-02-26T12:45:43.056Z,15.22
2019-02-26T12:48:15.620Z,15.30
2019-02-26T12:50:41.592Z,15.39
2019-02-26T12:53:12.710Z,15.48
2019-02-26T12:55:42.301Z,15.56
2019-02-26T12:58:11.284Z,15.62
2019-02-26T13:00:42.170Z,15.74
2019-02-26T13:03:12.833Z,15.86
2019-02-26T13:05:42.460Z,15.93
2019-02-26T13:08:13.407Z,15.96
2019-02-26T13:10:43.534Z,16.00
2019-02-26T13:13:11.601Z,16.02
2019-02-26T13:15:40.031Z,16.01
2019-02-26T13:18:08.440Z,16.00
2019-02-26T13:20:36.843Z,15.95
2019-02-26T13:23:17.033Z,15.90
2019-02-26T13:25:35.549Z,15.85
2019-02-26T13:28:04.038Z,15.88
2019-02-26T13:30:32.464Z,15.87
2019-02-26T13:33:04.985Z,15.87
2019-02-26T13:35:31.032Z,15.88
2019-02-26T13:38:01.592Z,15.91
2019-02-26T13:40:37.899Z,15.91
2019-02-26T13:45:29.524Z,16.03
2019-02-26T13:48:01.326Z,16.13
2019-02-26T13:50:33.817Z,16.19
2019-02-26T13:53:02.215Z,16.27
2019-02-26T13:55:30.751Z,16.32
2019-02-26T13:57:59.409Z,16.34
2019-02-26T14:00:27.881Z,16.34
2019-02-26T14:02:56.284Z,16.32
2019-02-26T14:05:24.719Z,16.32
2019-02-26T14:07:54.034Z,16.33
2019-02-26T14:10:26.013Z,16.32
2019-02-26T14:12:54.422Z,16.31
2019-02-26T14:15:24.447Z,16.29
2019-02-26T14:17:53.306Z,16.30
2019-02-26T14:20:21.886Z,16.28
2019-02-26T14:22:50.278Z,16.24
2019-02-26T14:25:18.807Z,16.20
2019-02-26T14:27:47.221Z,16.16
2019-02-26T14:30:19.789Z,16.12
2019-02-26T14:32:48.545Z,16.05
2019-02-26T14:35:17.084Z,15.97
2019-02-26T14:37:45.550Z,15.91
2019-02-26T14:40:18.778Z,15.86
2019-02-26T14:42:47.515Z,15.82
2019-02-26T14:45:20.254Z,15.78
2019-02-26T14:47:48.741Z,15.79
2019-02-26T14:50:21.647Z,15.79
2019-02-26T14:52:50.114Z,15.84
2019-02-26T14:55:18.942Z,15.91
2019-02-26T14:57:47.344Z,15.98
2019-02-26T15:00:21.098Z,16.05
2019-02-26T15:02:49.819Z,16.05
2019-02-26T15:05:18.218Z,16.02
2019-02-26T15:07:46.634Z,15.98
2019-02-26T15:10:15.793Z,15.95
2019-02-26T15:12:44.188Z,15.90
2019-02-26T15:15:15.126Z,15.84
2019-02-26T15:17:43.975Z,15.79
2019-02-26T15:20:14.606Z,15.75
2019-02-26T15:22:43.003Z,15.70
2019-02-26T15:25:17.122Z,15.65
2019-02-26T15:27:45.513Z,15.60
2019-02-26T15:30:16.355Z,15.55
2019-02-26T15:32:44.971Z,15.53
2019-02-26T15:35:13.909Z,15.49
2019-02-26T15:37:42.488Z,15.45
2019-02-26T15:40:15.551Z,15.43
2019-02-26T15:42:43.953Z,15.41
2019-02-26T15:45:20.907Z,15.44
2019-02-26T15:47:50.122Z,15.47
2019-02-26T15:50:20.335Z,15.52
2019-02-26T15:52:52.715Z,15.50
2019-02-26T15:55:25.913Z,15.46
2019-02-26T15:57:55.005Z,15.42
2019-02-26T16:00:24.705Z,15.40
2019-02-26T16:02:53.837Z,15.35
2019-02-26T16:05:27.731Z,15.28
2019-02-26T16:07:56.131Z,15.19
2019-02-26T16:10:24.529Z,15.08
2019-02-26T16:12:52.966Z,15.02
2019-02-26T16:15:21.378Z,14.95
2019-02-26T16:17:49.915Z,14.89
2019-02-26T16:20:19.896Z,14.80
2019-02-26T16:22:48.366Z,14.72
2019-02-26T16:25:16.928Z,14.65
2019-02-26T16:27:45.329Z,14.56
2019-02-26T16:30:17.017Z,14.47
2019-02-26T16:32:45.579Z,14.38
2019-02-26T16:35:15.109Z,14.28
2019-02-26T16:37:57.727Z,14.17
2019-02-26T16:40:32.420Z,14.07
2019-02-26T16:43:00.911Z,13.95
2019-02-26T16:45:34.304Z,13.82
2019-02-26T16:47:59.841Z,13.70
2019-02-26T16:50:30.481Z,13.59
2019-02-26T16:53:00.450Z,13.47
2019-02-26T16:55:29.350Z,13.34
2019-02-26T16:58:02.123Z,13.22
2019-02-26T17:00:29.395Z,13.09
2019-02-26T17:03:00.797Z,12.96
2019-02-26T17:05:28.130Z,12.82
2019-02-26T17:07:56.891Z,12.71
2019-02-26T17:10:29.083Z,12.59
2019-02-26T17:12:56.649Z,12.51
2019-02-26T17:15:32.002Z,12.45
2019-02-26T17:18:00.462Z,12.39
2019-02-26T17:20:28.945Z,12.31
2019-02-26T17:22:57.462Z,12.27
2019-02-26T17:25:28.611Z,12.17
2019-02-26T17:27:56.295Z,12.10
2019-02-26T17:30:24.873Z,11.97
2019-02-26T17:32:53.546Z,11.88
2019-02-26T17:35:22.170Z,11.79
2019-02-26T17:37:50.867Z,11.72
2019-02-26T17:40:23.410Z,11.68
2019-02-26T17:42:51.948Z,11.65
2019-02-26T17:45:25.282Z,11.55
2019-02-26T17:47:56.561Z,11.48
2019-02-26T17:50:38.260Z,11.39
2019-02-26T17:53:07.003Z,11.35
2019-02-26T17:55:35.620Z,11.21
2019-02-26T17:58:04.237Z,11.10
2019-02-26T18:00:37.309Z,11.07
2019-02-26T18:03:07.237Z,11.07
2019-02-26T18:05:39.360Z,11.04
2019-02-26T18:08:06.182Z,11.01
2019-02-26T18:10:36.577Z,11.00
2019-02-26T18:13:05.078Z,10.95
2019-02-26T18:15:33.547Z,10.89
2019-02-26T18:18:01.959Z,10.82
2019-02-26T18:20:30.563Z,10.76
2019-02-26T18:23:00.155Z,10.73
2019-02-26T18:25:29.329Z,10.68
2019-02-26T18:27:57.750Z,10.64
2019-02-26T18:30:30.209Z,10.59
2019-02-26T18:33:01.156Z,10.44
2019-02-26T18:35:29.672Z,10.27
2019-02-26T18:37:58.083Z,10.13
2019-02-26T18:40:28.281Z,10.04
2019-02-26T18:42:56.767Z,9.98
2019-02-26T18:45:45.955Z,9.92
2019-02-26T18:48:15.704Z,9.93
2019-02-26T18:50:53.780Z,9.93
2019-02-26T18:53:22.284Z,9.89
2019-02-26T18:55:50.685Z,9.86
2019-02-26T18:58:20.582Z,9.85
2019-02-26T19:00:49.011Z,9.82
2019-02-26T19:03:17.405Z,9.77
2019-02-26T19:05:45.813Z,9.73
2019-02-26T19:08:14.243Z,9.70
2019-02-26T19:10:42.646Z,9.65
2019-02-26T19:13:11.047Z,9.61
2019-02-26T19:15:39.493Z,9.59
2019-02-26T19:18:07.963Z,9.52
2019-02-26T19:20:37.995Z,9.44
2019-02-26T19:23:06.496Z,9.39
2019-02-26T19:25:35.059Z,9.37
2019-02-26T19:28:03.560Z,9.36
2019-02-26T19:30:32.332Z,9.31
2019-02-26T19:33:03.495Z,9.26
2019-02-26T19:35:34.811Z,9.22
2019-02-26T19:38:03.879Z,9.19
2019-02-26T19:40:41.224Z,9.16
2019-02-26T19:43:09.927Z,9.13
2019-02-26T19:45:38.417Z,9.12
2019-02-26T19:48:06.812Z,9.10
2019-02-26T19:50:35.269Z,9.08
2019-02-26T19:53:03.672Z,9.08
2019-02-26T19:55:40.415Z,9.07
2019-02-26T19:58:09.078Z,9.09
2019-02-26T20:00:37.621Z,9.10
2019-02-26T20:03:06.280Z,9.09
2019-02-26T20:05:34.775Z,9.13
2019-02-26T20:08:05.233Z,9.15
2019-02-26T20:10:33.423Z,9.15
2019-02-26T20:13:03.897Z,9.16
2019-02-26T20:15:31.951Z,9.17
2019-02-26T20:18:00.511Z,9.19
2019-02-26T20:20:28.915Z,9.20
2019-02-26T20:22:57.315Z,9.20
2019-02-26T20:25:26.278Z,9.19
2019-02-26T20:27:57.965Z,9.17
2019-02-26T20:30:25.115Z,9.15
2019-02-26T20:32:53.629Z,9.14
2019-02-26T20:35:22.016Z,9.12
2019-02-26T20:37:50.473Z,9.14
2019-02-26T20:40:25.567Z,9.19
2019-02-26T20:42:53.958Z,9.19
2019-02-26T20:45:22.846Z,9.18
2019-02-26T20:47:51.342Z,9.19
2019-02-26T20:50:21.109Z,9.18
2019-02-26T20:52:49.880Z,9.18
2019-02-26T20:55:23.879Z,9.20
2019-02-26T20:57:52.283Z,9.20
2019-02-26T21:00:24.998Z,9.26
2019-02-26T21:02:51.392Z,9.31
2019-02-26T21:05:19.874Z,9.33
2019-02-26T21:07:49.634Z,9.36
2019-02-26T21:10:19.528Z,9.38
2019-02-26T21:12:47.929Z,9.40
2019-02-26T21:15:21.715Z,9.40
2019-02-26T21:17:50.135Z,9.41
2019-02-26T21:20:18.530Z,9.41
2019-02-26T21:22:46.985Z,9.37
2019-02-26T21:25:15.946Z,9.35
2019-02-26T21:27:44.407Z,9.31
2019-02-26T21:30:20.293Z,9.29
2019-02-26T21:32:52.125Z,9.28
2019-02-26T21:35:21.386Z,9.26
2019-02-26T21:37:49.932Z,9.23
2019-02-26T21:40:18.354Z,9.20
2019-02-26T21:42:46.813Z,9.17
2019-02-26T21:45:19.605Z,9.15
2019-02-26T21:47:48.844Z,9.16
2019-02-26T21:50:17.306Z,9.15
2019-02-26T21:52:59.191Z,9.14
2019-02-26T21:55:17.672Z,9.12
2019-02-26T21:57:46.342Z,9.12
2019-02-26T22:00:17.859Z,9.06
2019-02-26T22:02:46.619Z,9.02
2019-02-26T22:05:15.079Z,8.99
2019-02-26T22:07:43.469Z,8.99
2019-02-26T22:10:14.519Z,9.02
2019-02-26T22:12:43.176Z,9.04
2019-02-26T22:15:14.224Z,9.04
2019-02-26T22:17:42.750Z,9.05
2019-02-26T22:20:22.057Z,9.04
2019-02-26T22:22:43.900Z,9.03
2019-02-26T22:25:16.944Z,9.00
2019-02-26T22:27:43.603Z,8.99
2019-02-26T22:30:21.548Z,9.00
2019-02-26T22:32:47.825Z,8.98
2019-02-26T22:35:16.497Z,8.94
2019-02-26T22:37:44.875Z,8.92
2019-02-26T22:40:14.549Z,8.90
2019-02-26T22:42:43.187Z,8.89
2019-02-26T22:45:14.160Z,8.88
2019-02-26T22:47:44.032Z,8.89
2019-02-26T22:50:14.895Z,8.85
2019-02-26T22:52:43.449Z,8.84
2019-02-26T22:55:16.510Z,8.81
2019-02-26T22:57:44.144Z,8.78
2019-02-26T23:00:48.396Z,8.73
2019-02-26T23:03:14.343Z,8.72
2019-02-26T23:05:42.980Z,8.69
2019-02-26T23:08:12.470Z,8.69
2019-02-26T23:10:41.400Z,8.70
2019-02-26T23:13:09.938Z,8.71
2019-02-26T23:15:38.364Z,8.73
2019-02-26T23:18:07.700Z,8.75
2019-02-26T23:20:36.779Z,8.77
2019-02-26T23:23:05.359Z,8.77
2019-02-26T23:25:35.940Z,8.75
2019-02-26T23:28:04.775Z,8.73
2019-02-26T23:30:33.267Z,8.69
2019-02-26T23:33:01.727Z,8.65
2019-02-26T23:35:30.191Z,8.63
2019-02-26T23:37:58.850Z,8.58
2019-02-26T23:40:28.106Z,8.56
2019-02-26T23:42:56.792Z,8.52
2019-02-26T23:45:25.500Z,8.48
2019-02-26T23:47:53.923Z,8.45
2019-02-26T23:50:22.304Z,8.45
2019-02-26T23:52:50.723Z,8.48
2019-02-26T23:55:19.103Z,8.50
2019-02-26T23:57:47.534Z,8.53
